createdAt,value
2017-12-08T00:01:53.275Z,93857.89
2017-12-08T00:04:21.616Z,93867.58
2017-12-08T00:06:49.969Z,93864.05
2017-12-08T00:09:18.307Z,93848.30
2017-12-08T00:11:46.638Z,93848.28
2017-12-08T00:14:14.969Z,93838.52
2017-12-08T00:16:43.289Z,93846.59
2017-12-08T00:19:11.674Z,93855.38
2017-12-08T00:21:40.014Z,93851.70
2017-12-08T00:24:08.391Z,93856.55
2017-12-08T00:26:36.678Z,93846.38
2017-12-08T00:29:05.019Z,93839.28
2017-12-08T00:31:33.399Z,93838.93
2017-12-08T00:34:01.730Z,93831.16
2017-12-08T00:36:30.074Z,93845.97
2017-12-08T00:41:32.874Z,93845.03
2017-12-08T00:44:01.319Z,93858.20
2017-12-08T00:46:29.661Z,93844.13
2017-12-08T00:48:58.004Z,93847.41
2017-12-08T00:51:26.364Z,93844.30
2017-12-08T00:53:54.699Z,93853.24
2017-12-08T00:56:23.074Z,93861.32
2017-12-08T00:58:51.414Z,93855.40
2017-12-08T01:01:19.757Z,93848.82
2017-12-08T01:03:48.096Z,93853.05
2017-12-08T01:06:16.437Z,93880.03
2017-12-08T01:08:44.797Z,93852.94
2017-12-08T01:11:13.150Z,93863.19
2017-12-08T01:13:41.507Z,93862.99
2017-12-08T01:16:09.834Z,93867.38
2017-12-08T01:18:38.181Z,93873.08
2017-12-08T01:21:06.546Z,93860.23
2017-12-08T01:23:34.881Z,93862.08
2017-12-08T01:26:03.218Z,93869.22
2017-12-08T01:28:31.549Z,93859.97
2017-12-08T01:30:59.899Z,93850.53
2017-12-08T01:33:28.269Z,93854.33
2017-12-08T01:35:56.613Z,93862.07
2017-12-08T01:38:24.964Z,93863.34
2017-12-08T01:40:53.294Z,93879.50
2017-12-08T01:43:21.639Z,93881.70
2017-12-08T01:45:50.003Z,93876.56
2017-12-08T01:48:18.347Z,93888.41
2017-12-08T01:50:46.703Z,93890.75
2017-12-08T01:53:15.038Z,93886.80
2017-12-08T01:55:43.385Z,93891.59
2017-12-08T01:58:11.797Z,93901.80
2017-12-08T02:00:40.095Z,93901.80
2017-12-08T02:03:08.432Z,93911.28
2017-12-08T02:05:36.779Z,93901.73
2017-12-08T02:08:05.118Z,93905.81
2017-12-08T02:10:33.634Z,93904.24
2017-12-08T02:13:01.999Z,93919.05
2017-12-08T02:15:30.349Z,93908.45
2017-12-08T02:17:58.693Z,93901.80
2017-12-08T02:20:27.039Z,93905.06
2017-12-08T02:22:55.418Z,93914.61
2017-12-08T02:25:23.765Z,93914.06
2017-12-08T02:27:52.106Z,93911.63
2017-12-08T02:30:20.449Z,93910.29
2017-12-08T02:32:49.011Z,93912.38
2017-12-08T02:35:17.400Z,93908.75
2017-12-08T02:37:45.750Z,93903.27
2017-12-08T02:40:14.088Z,93911.75
2017-12-08T02:42:42.426Z,93912.66
2017-12-08T02:45:10.937Z,93912.98
2017-12-08T02:47:39.324Z,93913.44
2017-12-08T02:50:08.555Z,93905.61
2017-12-08T02:52:36.914Z,93905.50
2017-12-08T02:55:05.260Z,93912.19
2017-12-08T02:57:33.608Z,93901.20
2017-12-08T03:00:01.991Z,93899.91
2017-12-08T03:02:30.343Z,93912.55
2017-12-08T03:04:58.690Z,93907.12
2017-12-08T03:07:27.046Z,93906.58
2017-12-08T03:09:55.390Z,93893.57
2017-12-08T03:12:23.874Z,93902.64
2017-12-08T03:14:52.224Z,93899.89
2017-12-08T03:17:20.571Z,93905.34
2017-12-08T03:19:49.022Z,93900.20
2017-12-08T03:22:17.368Z,93895.95
2017-12-08T03:24:45.838Z,93887.84
2017-12-08T03:27:14.178Z,93886.13
2017-12-08T03:29:42.561Z,93882.78
2017-12-08T03:32:10.899Z,93881.91
2017-12-08T03:34:39.246Z,93887.69
2017-12-08T03:37:07.624Z,93908.47
2017-12-08T03:39:35.974Z,93902.63
2017-12-08T03:42:04.319Z,93907.97
2017-12-08T03:44:32.655Z,93909.86
2017-12-08T03:47:01.004Z,93913.62
2017-12-08T03:49:29.383Z,93909.58
2017-12-08T03:51:57.722Z,93908.33
2017-12-08T03:54:26.073Z,93909.27
2017-12-08T03:56:54.427Z,93899.62
2017-12-08T03:59:22.766Z,93902.36
2017-12-08T04:01:51.146Z,93909.06
2017-12-08T04:04:19.506Z,93900.20
2017-12-08T04:06:47.856Z,93891.55
2017-12-08T04:09:16.189Z,93907.67
2017-12-08T04:11:44.658Z,93905.28
2017-12-08T04:14:13.019Z,93900.07
2017-12-08T04:16:41.357Z,93892.97
2017-12-08T04:19:09.706Z,93894.01
2017-12-08T04:21:38.058Z,93897.75
2017-12-08T04:24:06.435Z,93898.12
2017-12-08T04:26:34.793Z,93886.83
2017-12-08T04:29:03.134Z,93879.95
2017-12-08T04:31:31.486Z,93873.60
2017-12-08T04:33:59.839Z,93883.81
2017-12-08T04:36:28.208Z,93881.05
2017-12-08T04:38:56.552Z,93879.64
2017-12-08T04:41:24.912Z,93872.87
2017-12-08T04:43:53.254Z,93880.72
2017-12-08T04:46:21.605Z,93877.05
2017-12-08T04:48:50.011Z,93865.34
2017-12-08T04:51:18.351Z,93859.43
2017-12-08T04:53:46.699Z,93866.17
2017-12-08T04:56:15.046Z,93864.84
2017-12-08T04:58:43.404Z,93885.66
2017-12-08T05:01:11.782Z,93882.89
2017-12-08T05:03:40.126Z,93870.17
2017-12-08T05:06:08.476Z,93864.62
2017-12-08T05:08:36.820Z,93883.53
2017-12-08T05:11:05.171Z,93872.53
2017-12-08T05:13:33.534Z,93878.81
2017-12-08T05:16:01.878Z,93863.31
2017-12-08T05:18:30.228Z,93857.33
2017-12-08T05:20:58.584Z,93866.11
2017-12-08T05:23:26.933Z,93876.29
2017-12-08T05:25:55.310Z,93879.45
2017-12-08T05:28:23.651Z,93875.61
2017-12-08T05:30:52.027Z,93882.81
2017-12-08T05:33:20.375Z,93867.35
2017-12-08T05:35:48.717Z,93898.20
2017-12-08T05:38:17.204Z,93900.83
2017-12-08T05:40:45.590Z,93902.84
2017-12-08T05:43:13.919Z,93889.69
2017-12-08T05:45:42.255Z,93884.42
2017-12-08T05:48:10.591Z,93882.19
2017-12-08T05:50:38.963Z,93876.02
2017-12-08T05:53:07.308Z,93918.53
2017-12-08T05:55:35.657Z,93918.11
2017-12-08T05:58:03.994Z,93917.28
2017-12-08T06:00:32.329Z,93918.87
2017-12-08T06:03:01.007Z,93907.28
2017-12-08T06:05:29.342Z,93915.01
2017-12-08T06:07:57.676Z,93917.47
2017-12-08T06:10:26.019Z,93908.58
2017-12-08T06:12:54.355Z,93931.50
2017-12-08T06:15:22.723Z,93926.44
2017-12-08T06:17:51.047Z,93928.76
2017-12-08T06:20:19.391Z,93930.28
2017-12-08T06:22:47.723Z,93932.80
2017-12-08T06:25:16.058Z,93925.81
2017-12-08T06:27:44.426Z,93932.39
2017-12-08T06:30:12.786Z,93930.97
2017-12-08T06:32:41.119Z,93931.16
2017-12-08T06:35:09.472Z,93936.20
2017-12-08T06:37:37.802Z,93953.16
2017-12-08T06:40:06.166Z,93946.73
2017-12-08T06:42:34.516Z,93943.92
2017-12-08T06:45:02.858Z,93945.97
2017-12-08T06:47:31.198Z,93944.92
2017-12-08T06:49:59.634Z,93934.84
2017-12-08T06:52:28.107Z,93934.02
2017-12-08T06:54:57.048Z,93933.88
2017-12-08T06:57:25.395Z,93938.19
2017-12-08T06:59:53.747Z,93939.98
2017-12-08T07:02:22.087Z,93936.52
2017-12-08T07:04:50.458Z,93944.58
2017-12-08T07:07:18.801Z,93953.05
2017-12-08T07:09:47.149Z,93954.76
2017-12-08T07:12:15.482Z,93951.44
2017-12-08T07:14:43.826Z,93931.05
2017-12-08T07:17:12.259Z,93945.30
2017-12-08T07:19:40.558Z,93945.61
2017-12-08T07:22:08.898Z,93943.22
2017-12-08T07:24:37.247Z,93929.47
2017-12-08T07:27:05.586Z,93937.16
2017-12-08T07:29:33.955Z,93937.70
2017-12-08T07:32:02.313Z,93944.09
2017-12-08T07:34:30.647Z,93935.79
2017-12-08T07:36:58.994Z,93934.77
2017-12-08T07:39:27.339Z,93943.14
2017-12-08T07:41:55.895Z,93947.84
2017-12-08T07:44:24.242Z,93946.70
2017-12-08T07:46:52.603Z,93944.66
2017-12-08T07:49:20.935Z,93945.95
2017-12-08T07:51:49.272Z,93952.28
2017-12-08T07:54:17.650Z,93950.53
2017-12-08T07:56:45.986Z,93944.05
2017-12-08T07:59:14.331Z,93960.91
2017-12-08T08:01:42.688Z,93969.51
2017-12-08T08:04:11.026Z,93962.88
2017-12-08T08:06:39.406Z,93963.66
2017-12-08T08:09:07.751Z,93972.57
2017-12-08T08:11:36.110Z,93977.94
2017-12-08T08:14:04.490Z,93963.00
2017-12-08T08:16:32.839Z,93967.42
2017-12-08T08:19:01.177Z,93963.22
2017-12-08T08:21:29.528Z,93970.41
2017-12-08T08:23:57.870Z,93963.56
2017-12-08T08:26:26.247Z,93969.45
2017-12-08T08:28:54.587Z,93964.39
2017-12-08T08:31:22.946Z,93966.34
2017-12-08T08:33:51.279Z,93969.40
2017-12-08T08:36:19.616Z,93965.52
2017-12-08T08:38:48.004Z,93957.89
2017-12-08T08:41:16.346Z,93968.92
2017-12-08T08:43:44.703Z,93964.42
2017-12-08T08:46:13.053Z,93957.98
2017-12-08T08:48:41.398Z,93960.17
2017-12-08T08:51:09.766Z,93959.27
2017-12-08T08:53:38.115Z,93960.27
2017-12-08T08:56:06.460Z,93954.08
2017-12-08T08:58:34.823Z,93946.89
2017-12-08T09:01:03.175Z,93951.14
2017-12-08T09:03:31.548Z,93947.94
2017-12-08T09:05:59.899Z,93949.02
2017-12-08T09:08:28.259Z,93958.93
2017-12-08T09:10:56.623Z,93958.58
2017-12-08T09:13:24.961Z,93953.78
2017-12-08T09:15:53.355Z,93960.73
2017-12-08T09:18:21.706Z,93948.57
2017-12-08T09:20:50.047Z,93953.80
2017-12-08T09:23:18.390Z,93970.90
2017-12-08T09:25:46.738Z,93959.89
2017-12-08T09:28:15.121Z,93955.06
2017-12-08T09:30:43.605Z,93960.21
2017-12-08T09:33:11.938Z,93953.82
2017-12-08T09:35:40.270Z,93965.09
2017-12-08T09:38:08.602Z,93978.25
2017-12-08T09:40:36.975Z,93985.48
2017-12-08T09:43:05.338Z,93981.47
2017-12-08T09:45:33.679Z,93974.92
2017-12-08T09:48:02.042Z,93974.59
2017-12-08T09:50:30.411Z,93986.69
2017-12-08T09:52:58.775Z,93973.64
2017-12-08T09:55:27.106Z,93974.90
2017-12-08T09:57:55.455Z,93971.14
2017-12-08T10:00:23.792Z,93972.59
2017-12-08T10:02:52.133Z,93963.48
2017-12-08T10:05:20.517Z,93973.22
2017-12-08T10:07:48.851Z,93967.52
2017-12-08T10:10:17.234Z,93972.70
2017-12-08T10:12:45.568Z,93961.48
2017-12-08T10:15:13.907Z,93958.13
2017-12-08T10:17:42.303Z,93949.39
2017-12-08T10:20:10.631Z,93957.09
2017-12-08T10:22:38.959Z,93957.91
2017-12-08T10:25:07.326Z,93954.52
2017-12-08T10:27:35.673Z,93939.77
2017-12-08T10:30:04.152Z,93943.03
2017-12-08T10:32:32.494Z,93929.25
2017-12-08T10:35:00.837Z,93929.00
2017-12-08T10:37:29.185Z,93930.66
2017-12-08T10:39:57.522Z,93921.87
2017-12-08T10:42:25.911Z,93925.52
2017-12-08T10:44:54.264Z,93920.09
2017-12-08T10:47:22.610Z,93914.58
2017-12-08T10:49:50.995Z,93907.81
2017-12-08T10:52:19.471Z,93908.63
2017-12-08T10:54:47.926Z,93909.45
2017-12-08T10:57:16.282Z,93898.41
2017-12-08T10:59:44.610Z,93896.69
2017-12-08T11:02:12.954Z,93907.34
2017-12-08T11:04:41.314Z,93914.45
2017-12-08T11:07:09.839Z,93907.28
2017-12-08T11:09:38.192Z,93898.03
2017-12-08T11:12:06.533Z,93878.20
2017-12-08T11:14:34.868Z,93885.88
2017-12-08T11:17:03.198Z,93880.64
2017-12-08T11:19:31.582Z,93882.33
2017-12-08T11:21:59.914Z,93874.58
2017-12-08T11:24:28.274Z,93877.00
2017-12-08T11:26:56.629Z,93878.04
2017-12-08T11:29:24.971Z,93871.55
2017-12-08T11:31:53.352Z,93874.17
2017-12-08T11:34:21.682Z,93873.28
2017-12-08T11:36:50.796Z,93879.97
2017-12-08T11:39:19.186Z,93882.13
2017-12-08T11:41:47.560Z,93880.45
2017-12-08T11:44:15.955Z,93877.42
2017-12-08T11:46:44.305Z,93861.98
2017-12-08T11:49:12.668Z,93873.41
2017-12-08T11:51:40.987Z,93870.45
2017-12-08T11:54:09.325Z,93867.74
2017-12-08T11:56:37.709Z,93862.04
2017-12-08T11:59:06.062Z,93867.27
2017-12-08T12:01:34.407Z,93867.31
2017-12-08T12:04:02.749Z,93858.31
2017-12-08T12:06:31.096Z,93851.48
2017-12-08T12:08:59.463Z,93853.83
2017-12-08T12:11:27.816Z,93853.57
2017-12-08T12:13:56.168Z,93853.27
2017-12-08T12:16:24.511Z,93843.80
2017-12-08T12:18:52.843Z,93853.00
2017-12-08T12:21:21.232Z,93851.70
2017-12-08T12:23:49.585Z,93851.34
2017-12-08T12:26:17.931Z,93842.76
2017-12-08T12:28:46.342Z,93835.86
2017-12-08T12:31:14.720Z,93836.19
2017-12-08T12:33:43.042Z,93831.06
2017-12-08T12:36:11.388Z,93813.69
2017-12-08T12:38:39.785Z,93817.48
2017-12-08T12:41:08.120Z,93815.48
2017-12-08T12:43:36.468Z,93820.81
2017-12-08T12:46:04.801Z,93821.44
2017-12-08T12:48:33.148Z,93812.22
2017-12-08T12:51:01.520Z,93814.25
2017-12-08T12:53:29.872Z,93810.69
2017-12-08T12:55:58.203Z,93812.40
2017-12-08T12:58:26.538Z,93813.95
2017-12-08T13:00:54.885Z,93817.26
2017-12-08T13:03:23.252Z,93813.52
2017-12-08T13:05:51.663Z,93813.70
2017-12-08T13:08:19.995Z,93809.73
2017-12-08T13:10:48.380Z,93817.99
2017-12-08T13:13:16.688Z,93808.98
2017-12-08T13:15:45.059Z,93809.24
2017-12-08T13:18:13.396Z,93813.13
2017-12-08T13:20:41.745Z,93802.16
2017-12-08T13:23:10.100Z,93811.27
2017-12-08T13:25:38.426Z,93817.59
2017-12-08T13:28:06.800Z,93813.95
2017-12-08T13:30:35.138Z,93815.94
2017-12-08T13:33:03.501Z,93821.69
2017-12-08T13:35:31.847Z,93824.45
2017-12-08T13:38:00.221Z,93820.98
2017-12-08T13:40:28.711Z,93833.08
2017-12-08T13:42:57.068Z,93832.94
2017-12-08T13:45:25.411Z,93827.48
2017-12-08T13:47:53.763Z,93835.52
2017-12-08T13:50:22.842Z,93837.70
2017-12-08T13:52:51.406Z,93847.66
2017-12-08T13:55:31.470Z,93849.11
2017-12-08T13:57:59.863Z,93847.50
2017-12-08T14:00:28.190Z,93856.22
2017-12-08T14:02:56.550Z,93849.79
2017-12-08T14:05:24.883Z,93855.84
2017-12-08T14:07:53.267Z,93866.95
2017-12-08T14:10:21.639Z,93866.59
2017-12-08T14:12:49.969Z,93866.05
2017-12-08T14:15:18.323Z,93877.14
2017-12-08T14:17:46.670Z,93876.64
2017-12-08T14:20:15.014Z,93868.30
2017-12-08T14:22:43.402Z,93887.13
2017-12-08T14:25:11.758Z,93886.52
2017-12-08T14:27:40.109Z,93883.38
2017-12-08T14:30:08.453Z,93892.41
2017-12-08T14:32:36.794Z,93894.97
2017-12-08T14:35:05.160Z,93901.92
2017-12-08T14:37:33.507Z,93912.94
2017-12-08T14:40:01.871Z,93928.57
2017-12-08T14:42:30.226Z,93929.66
2017-12-08T14:44:58.558Z,93930.96
2017-12-08T14:47:26.881Z,93940.26
2017-12-08T14:49:55.230Z,93943.43
2017-12-08T14:52:23.612Z,93955.00
2017-12-08T14:54:51.951Z,93948.50
2017-12-08T14:57:20.269Z,93946.67
2017-12-08T14:59:48.617Z,93945.73
2017-12-08T15:02:16.950Z,93950.17
2017-12-08T15:04:45.335Z,93962.94
2017-12-08T15:07:13.761Z,93965.91
2017-12-08T15:09:42.114Z,93959.53
2017-12-08T15:12:10.482Z,93963.55
2017-12-08T15:14:38.829Z,93967.94
2017-12-08T15:17:07.231Z,93970.36
2017-12-08T15:19:35.593Z,93971.25
2017-12-08T15:22:03.930Z,93954.16
2017-12-08T15:24:32.267Z,93965.67
2017-12-08T15:27:00.609Z,93964.44
2017-12-08T15:29:28.976Z,93969.16
2017-12-08T15:31:57.343Z,93968.80
2017-12-08T15:34:25.682Z,93967.07
2017-12-08T15:36:54.027Z,93972.41
2017-12-08T15:39:22.391Z,93971.58
2017-12-08T15:41:50.766Z,93972.91
2017-12-08T15:44:19.111Z,93962.51
2017-12-08T15:46:47.475Z,93959.53
2017-12-08T15:49:15.818Z,93963.25
2017-12-08T15:51:44.198Z,93969.23
2017-12-08T15:54:12.537Z,93964.69
2017-12-08T15:56:40.884Z,93971.34
2017-12-08T15:59:09.235Z,93978.23
2017-12-08T16:01:37.585Z,93976.53
2017-12-08T16:04:06.069Z,93976.06
2017-12-08T16:06:34.574Z,93974.75
2017-12-08T16:09:02.907Z,93975.17
2017-12-08T16:11:31.302Z,93976.37
2017-12-08T16:13:59.611Z,93977.41
2017-12-08T16:16:28.143Z,93974.58
2017-12-08T16:18:56.498Z,93990.33
2017-12-08T16:21:24.900Z,93984.42
2017-12-08T16:23:53.270Z,93981.19
2017-12-08T16:26:21.622Z,93987.42
2017-12-08T16:28:50.015Z,93989.41
2017-12-08T16:31:18.371Z,93992.31
2017-12-08T16:33:46.762Z,93992.41
2017-12-08T16:36:15.094Z,93988.52
2017-12-08T16:38:43.432Z,93992.44
2017-12-08T16:41:11.802Z,93996.38
2017-12-08T16:43:40.146Z,94002.67
2017-12-08T16:46:08.543Z,94000.15
2017-12-08T16:48:36.905Z,94005.55
2017-12-08T16:51:05.244Z,94021.84
2017-12-08T16:53:33.630Z,94016.41
2017-12-08T16:56:01.982Z,94018.77
2017-12-08T16:58:30.453Z,94017.76
2017-12-08T17:00:58.799Z,94022.02
2017-12-08T17:03:27.127Z,94020.27
2017-12-08T17:05:55.488Z,94025.67
2017-12-08T17:08:23.819Z,94024.28
2017-12-08T17:10:52.211Z,94031.29
2017-12-08T17:13:20.549Z,94025.50
2017-12-08T17:15:49.868Z,94028.81
2017-12-08T17:18:18.214Z,94029.02
2017-12-08T17:20:46.560Z,94017.26
2017-12-08T17:23:14.926Z,94025.80
2017-12-08T17:25:43.264Z,94026.00
2017-12-08T17:28:11.600Z,94022.25
2017-12-08T17:30:39.937Z,94026.66
2017-12-08T17:33:08.261Z,94031.05
2017-12-08T17:35:36.674Z,94029.97
2017-12-08T17:38:04.993Z,94038.58
2017-12-08T17:40:33.326Z,94039.58
2017-12-08T17:43:01.776Z,94043.31
2017-12-08T17:45:30.370Z,94048.56
2017-12-08T17:47:58.858Z,94042.83
2017-12-08T17:50:27.330Z,94048.58
2017-12-08T17:52:55.848Z,94046.48
2017-12-08T17:55:24.337Z,94034.63
2017-12-08T17:57:52.992Z,94040.48
2017-12-08T18:00:21.440Z,94043.84
2017-12-08T18:02:49.844Z,94054.63
2017-12-08T18:05:18.187Z,94045.83
2017-12-08T18:07:49.639Z,94051.34
2017-12-08T18:10:22.203Z,94035.37
2017-12-08T18:12:54.112Z,94046.27
2017-12-08T18:15:26.141Z,94052.39
2017-12-08T18:17:56.333Z,94047.98
2017-12-08T18:20:27.664Z,94056.70
2017-12-08T18:22:57.427Z,94057.63
2017-12-08T18:25:31.750Z,94053.54
2017-12-08T18:28:04.527Z,94055.20
2017-12-08T18:30:33.417Z,94057.53
2017-12-08T18:33:02.273Z,94064.95
2017-12-08T18:35:31.550Z,94067.84
2017-12-08T18:38:00.279Z,94065.61
2017-12-08T18:40:29.022Z,94069.25
2017-12-08T18:42:57.531Z,94069.88
2017-12-08T18:45:25.958Z,94068.31
2017-12-08T18:47:55.134Z,94070.00
2017-12-08T18:50:26.558Z,94067.14
2017-12-08T18:52:55.167Z,94076.59
2017-12-08T18:55:23.514Z,94069.09
2017-12-08T18:57:51.850Z,94075.42
2017-12-08T19:00:20.216Z,94066.36
2017-12-08T19:02:48.574Z,94059.62
2017-12-08T19:05:17.043Z,94064.09
2017-12-08T19:07:45.391Z,94071.09
2017-12-08T19:10:13.750Z,94078.45
2017-12-08T19:12:42.086Z,94062.33
2017-12-08T19:15:10.462Z,94075.39
2017-12-08T19:17:39.056Z,94069.23
2017-12-08T19:20:07.414Z,94084.49
2017-12-08T19:22:35.767Z,94082.73
2017-12-08T19:25:04.106Z,94090.91
2017-12-08T19:27:32.480Z,94084.23
2017-12-08T19:30:00.844Z,94091.27
2017-12-08T19:32:29.176Z,94092.09
2017-12-08T19:34:57.522Z,94084.80
2017-12-08T19:37:25.858Z,94087.89
2017-12-08T19:39:54.206Z,94075.17
2017-12-08T19:42:22.735Z,94082.03
2017-12-08T19:44:51.116Z,94081.18
2017-12-08T19:47:20.365Z,94081.35
2017-12-08T19:49:48.713Z,94082.79
2017-12-08T19:52:17.062Z,94077.47
2017-12-08T19:54:45.478Z,94069.77
2017-12-08T19:57:13.912Z,94066.09
2017-12-08T19:59:42.313Z,94069.13
2017-12-08T20:02:10.649Z,94065.04
2017-12-08T20:04:38.988Z,94063.66
2017-12-08T20:07:07.322Z,94059.09
2017-12-08T20:09:35.674Z,94049.34
2017-12-08T20:12:04.041Z,94046.78
2017-12-08T20:14:32.399Z,94056.31
2017-12-08T20:17:00.740Z,94056.31
2017-12-08T20:19:34.014Z,94048.74
2017-12-08T20:22:02.354Z,94060.94
2017-12-08T20:24:30.724Z,94039.94
2017-12-08T20:26:59.075Z,94048.27
2017-12-08T20:29:27.426Z,94053.77
2017-12-08T20:31:55.794Z,94044.84
2017-12-08T20:34:24.130Z,94038.95
2017-12-08T20:36:52.512Z,94030.86
2017-12-08T20:39:20.856Z,94044.33
2017-12-08T20:41:49.218Z,94046.86
2017-12-08T20:44:17.570Z,94037.19
2017-12-08T20:46:45.915Z,94038.23
2017-12-08T20:49:14.420Z,94052.17
2017-12-08T20:51:42.762Z,94042.98
2017-12-08T20:54:11.107Z,94048.72
2017-12-08T20:56:39.458Z,94044.88
2017-12-08T20:59:07.798Z,94027.88
2017-12-08T21:01:36.162Z,94033.64
2017-12-08T21:04:04.498Z,94026.02
2017-12-08T21:06:32.838Z,94024.50
2017-12-08T21:09:01.183Z,94020.55
2017-12-08T21:11:29.540Z,94024.10
2017-12-08T21:13:57.922Z,94017.26
2017-12-08T21:16:26.275Z,94004.18
2017-12-08T21:18:54.620Z,94006.44
2017-12-08T21:21:22.954Z,94004.67
2017-12-08T21:23:51.315Z,94003.09
2017-12-08T21:26:19.684Z,94004.03
2017-12-08T21:28:48.031Z,93997.51
2017-12-08T21:31:16.380Z,93996.68
2017-12-08T21:33:44.736Z,93995.15
2017-12-08T21:36:13.069Z,93989.44
2017-12-08T21:38:41.451Z,93987.10
2017-12-08T21:41:09.802Z,93978.65
2017-12-08T21:43:38.157Z,93978.50
2017-12-08T21:46:06.542Z,93976.23
2017-12-08T21:48:34.883Z,93971.95
2017-12-08T21:51:03.251Z,93958.20
2017-12-08T21:53:31.604Z,93963.77
2017-12-08T21:55:59.967Z,93964.18
2017-12-08T21:58:28.315Z,93969.28
2017-12-08T22:00:56.710Z,93970.55
2017-12-08T22:03:25.057Z,93972.91
2017-12-08T22:05:53.403Z,93970.69
2017-12-08T22:08:21.918Z,93971.06
2017-12-08T22:10:50.290Z,93971.14
2017-12-08T22:13:18.633Z,93976.36
2017-12-08T22:15:46.967Z,93973.92
2017-12-08T22:18:15.322Z,93973.84
2017-12-08T22:20:43.711Z,93975.25
2017-12-08T22:23:12.061Z,93981.00
2017-12-08T22:25:40.402Z,93991.12
2017-12-08T22:28:08.750Z,93992.94
2017-12-08T22:30:37.098Z,93988.27
2017-12-08T22:33:05.495Z,93995.45
2017-12-08T22:35:33.830Z,93993.43
2017-12-08T22:38:02.166Z,93990.40
2017-12-08T22:40:30.542Z,94000.80
2017-12-08T22:42:58.883Z,93993.05
2017-12-08T22:45:27.261Z,94002.20
2017-12-08T22:47:55.622Z,94010.05
2017-12-08T22:50:23.972Z,94017.25
2017-12-08T22:52:52.302Z,94006.84
2017-12-08T22:55:20.630Z,94001.25
2017-12-08T22:57:49.012Z,94007.53
2017-12-08T23:00:32.014Z,94016.91
2017-12-08T23:03:00.383Z,94007.27
2017-12-08T23:05:28.730Z,94024.00
2017-12-08T23:07:57.071Z,94032.92
2017-12-08T23:10:25.435Z,94036.75
2017-12-08T23:12:53.766Z,94026.38
2017-12-08T23:15:22.122Z,94036.05
2017-12-08T23:17:50.471Z,94031.61
2017-12-08T23:20:18.805Z,94027.44
2017-12-08T23:22:47.145Z,94037.58
2017-12-08T23:25:15.470Z,94037.17
2017-12-08T23:27:43.852Z,94041.95
2017-12-08T23:30:12.187Z,94040.98
2017-12-08T23:32:40.526Z,94040.59
2017-12-08T23:35:08.889Z,94040.89
2017-12-08T23:37:37.227Z,94040.30
2017-12-08T23:40:05.613Z,94044.19
2017-12-08T23:42:33.943Z,94043.99
2017-12-08T23:45:02.283Z,94044.99
2017-12-08T23:47:30.618Z,94045.09
2017-12-08T23:49:58.984Z,94050.81
2017-12-08T23:52:27.318Z,94060.17
2017-12-08T23:54:55.824Z,94057.72
2017-12-08T23:57:24.150Z,94052.97
2017-12-08T23:59:52.496Z,94058.77
